createdAt,value
2019-01-27T00:02:24.701Z,99.90
2019-01-27T00:04:54.868Z,99.90
2019-01-27T00:07:25.499Z,99.90
2019-01-27T00:09:57.243Z,99.90
2019-01-27T00:12:27.615Z,99.90
2019-01-27T00:14:57.738Z,99.90
2019-01-27T00:17:28.471Z,99.70
2019-01-27T00:19:58.673Z,99.70
2019-01-27T00:22:28.408Z,99.90
2019-01-27T00:24:58.317Z,99.90
2019-01-27T00:27:29.265Z,99.90
2019-01-27T00:29:59.145Z,99.90
2019-01-27T00:32:29.208Z,99.90
2019-01-27T00:34:59.173Z,99.90
2019-01-27T00:37:29.211Z,99.50
2019-01-27T00:39:59.200Z,99.90
2019-01-27T00:42:29.273Z,99.90
2019-01-27T00:44:59.363Z,99.90
2019-01-27T00:47:30.406Z,99.90
2019-01-27T00:50:02.449Z,99.90
2019-01-27T00:52:34.565Z,99.90
2019-01-27T00:55:10.823Z,99.90
2019-01-27T00:57:42.554Z,99.90
2019-01-27T01:00:20.457Z,99.90
2019-01-27T01:02:50.704Z,99.90
2019-01-27T01:05:20.470Z,99.90
2019-01-27T01:07:50.820Z,99.90
2019-01-27T01:10:22.278Z,99.90
2019-01-27T01:12:52.190Z,99.90
2019-01-27T01:15:22.459Z,99.90
2019-01-27T01:17:52.536Z,99.90
2019-01-27T01:20:22.403Z,99.90
2019-01-27T01:22:52.480Z,99.90
2019-01-27T01:25:23.584Z,99.90
2019-01-27T01:27:54.057Z,99.90
2019-01-27T01:30:26.690Z,99.90
2019-01-27T01:32:56.834Z,99.90
2019-01-27T01:35:26.908Z,99.90
2019-01-27T01:37:56.752Z,99.90
2019-01-27T01:40:26.858Z,99.90
2019-01-27T01:42:56.800Z,99.90
2019-01-27T01:45:32.088Z,99.90
2019-01-27T01:48:04.602Z,99.90
2019-01-27T01:50:34.612Z,99.90
2019-01-27T01:53:05.369Z,99.90
2019-01-27T01:55:35.335Z,99.90
2019-01-27T01:58:07.801Z,99.90
2019-01-27T02:00:37.973Z,99.90
2019-01-27T02:03:07.944Z,99.90
2019-01-27T02:05:37.896Z,99.90
2019-01-27T02:08:07.674Z,99.90
2019-01-27T02:10:37.529Z,99.90
2019-01-27T02:13:07.512Z,99.90
2019-01-27T02:16:06.954Z,99.90
2019-01-27T02:18:37.743Z,99.90
2019-01-27T02:21:08.402Z,99.90
2019-01-27T02:23:38.591Z,99.90
2019-01-27T02:26:09.905Z,99.90
2019-01-27T02:28:39.956Z,99.90
2019-01-27T02:31:10.041Z,99.90
2019-01-27T02:33:40.224Z,99.90
2019-01-27T02:36:10.162Z,99.90
2019-01-27T02:38:40.136Z,99.90
2019-01-27T02:41:10.195Z,99.90
2019-01-27T02:43:40.265Z,99.90
2019-01-27T02:46:10.124Z,99.90
2019-01-27T02:48:40.102Z,99.90
2019-01-27T02:51:10.152Z,99.90
2019-01-27T02:53:40.224Z,99.90
2019-01-27T02:56:10.197Z,99.90
2019-01-27T02:58:40.456Z,99.90
2019-01-27T03:01:10.483Z,99.90
2019-01-27T03:03:40.293Z,99.90
2019-01-27T03:06:38.294Z,99.90
2019-01-27T03:09:13.532Z,99.90
2019-01-27T03:11:52.401Z,99.90
2019-01-27T03:14:22.857Z,99.90
2019-01-27T03:16:54.136Z,99.80
2019-01-27T03:19:24.331Z,99.90
2019-01-27T03:21:54.376Z,99.90
2019-01-27T03:24:24.465Z,99.90
2019-01-27T03:26:54.489Z,99.90
2019-01-27T03:29:24.491Z,99.90
2019-01-27T03:31:54.457Z,99.90
2019-01-27T03:34:24.743Z,99.90
2019-01-27T03:36:55.370Z,99.90
2019-01-27T03:39:25.393Z,99.90
2019-01-27T03:41:56.975Z,99.90
2019-01-27T03:44:27.374Z,99.90
2019-01-27T03:46:57.724Z,99.90
2019-01-27T03:49:28.025Z,99.90
2019-01-27T03:51:59.101Z,99.90
2019-01-27T03:54:29.268Z,99.90
2019-01-27T03:56:59.208Z,99.90
2019-01-27T03:59:29.089Z,99.90
2019-01-27T04:01:58.940Z,99.90
2019-01-27T04:04:29.144Z,99.90
2019-01-27T04:06:59.183Z,99.90
2019-01-27T04:09:29.152Z,99.90
2019-01-27T04:11:59.097Z,99.90
2019-01-27T04:14:28.876Z,99.90
2019-01-27T04:16:59.057Z,99.90
2019-01-27T04:19:29.012Z,99.90
2019-01-27T04:21:58.928Z,99.40
2019-01-27T04:24:28.885Z,99.90
2019-01-27T04:26:58.952Z,99.90
2019-01-27T04:29:28.922Z,99.90
2019-01-27T04:31:58.985Z,99.90
2019-01-27T04:34:30.961Z,99.90
2019-01-27T04:37:00.752Z,99.90
2019-01-27T04:39:30.721Z,99.90
2019-01-27T04:42:00.707Z,99.90
2019-01-27T04:44:30.752Z,99.90
2019-01-27T04:47:00.637Z,99.90
2019-01-27T04:49:30.580Z,99.90
2019-01-27T04:52:00.349Z,99.90
2019-01-27T04:54:30.307Z,99.90
2019-01-27T04:57:00.793Z,99.90
2019-01-27T04:59:30.751Z,99.90
2019-01-27T05:02:00.735Z,99.90
2019-01-27T05:04:38.574Z,99.90
2019-01-27T05:07:08.646Z,99.90
2019-01-27T05:09:38.827Z,99.90
2019-01-27T05:12:09.188Z,99.90
2019-01-27T05:14:39.241Z,99.90
2019-01-27T05:17:09.012Z,99.90
2019-01-27T05:19:38.858Z,99.90
2019-01-27T05:22:08.746Z,99.90
2019-01-27T05:24:38.592Z,99.90
2019-01-27T05:27:08.373Z,99.90
2019-01-27T05:29:38.420Z,99.90
2019-01-27T05:32:08.420Z,99.90
2019-01-27T05:34:38.470Z,99.90
2019-01-27T05:37:08.341Z,99.90
2019-01-27T05:39:38.278Z,99.90
2019-01-27T05:42:08.161Z,99.90
2019-01-27T05:44:38.636Z,99.90
2019-01-27T05:47:08.484Z,99.90
2019-01-27T05:49:38.240Z,99.90
2019-01-27T05:52:08.185Z,99.90
2019-01-27T05:54:38.277Z,99.90
2019-01-27T05:57:08.174Z,99.90
2019-01-27T05:59:38.384Z,99.90
2019-01-27T06:02:08.076Z,99.90
2019-01-27T06:04:38.096Z,99.90
2019-01-27T06:07:08.031Z,99.90
2019-01-27T06:09:38.039Z,99.90
2019-01-27T06:12:07.981Z,99.90
2019-01-27T06:14:37.758Z,99.90
2019-01-27T06:17:07.712Z,99.90
2019-01-27T06:19:37.600Z,99.90
2019-01-27T06:22:07.429Z,99.90
2019-01-27T06:24:37.622Z,99.90
2019-01-27T06:27:07.564Z,99.90
2019-01-27T06:29:37.740Z,99.90
2019-01-27T06:32:09.816Z,99.90
2019-01-27T06:34:39.641Z,99.90
2019-01-27T06:37:09.584Z,99.90
2019-01-27T06:39:39.560Z,99.90
2019-01-27T06:42:09.521Z,99.90
2019-01-27T06:44:39.596Z,99.90
2019-01-27T06:47:09.554Z,99.90
2019-01-27T06:49:39.424Z,99.90
2019-01-27T06:52:10.236Z,99.90
2019-01-27T06:54:40.065Z,99.90
2019-01-27T06:57:10.633Z,99.90
2019-01-27T06:59:54.628Z,99.40
2019-01-27T07:02:31.915Z,98.80
2019-01-27T07:05:23.437Z,99.60
2019-01-27T07:08:03.005Z,99.50
2019-01-27T07:10:50.840Z,99.90
2019-01-27T07:13:43.254Z,99.00
2019-01-27T07:16:36.107Z,98.90
2019-01-27T07:19:26.919Z,99.50
2019-01-27T07:22:18.868Z,99.60
2019-01-27T07:25:23.701Z,99.90
2019-01-27T07:28:21.232Z,99.90
2019-01-27T07:31:08.760Z,99.80
2019-01-27T07:34:03.896Z,99.50
2019-01-27T07:37:01.764Z,99.10
2019-01-27T07:39:44.245Z,98.90
2019-01-27T07:42:35.964Z,98.30
2019-01-27T07:45:29.539Z,98.80
2019-01-27T07:48:22.461Z,98.90
2019-01-27T07:51:11.993Z,98.90
2019-01-27T07:54:16.229Z,98.40
2019-01-27T07:57:10.928Z,98.50
2019-01-27T08:00:10.293Z,98.40
2019-01-27T08:03:01.904Z,98.20
2019-01-27T08:05:51.204Z,97.20
2019-01-27T08:08:45.764Z,98.10
2019-01-27T08:11:47.046Z,97.50
2019-01-27T08:14:49.560Z,98.50
2019-01-27T08:17:41.629Z,98.70
2019-01-27T08:20:31.156Z,99.30
2019-01-27T08:23:32.349Z,99.80
2019-01-27T08:26:08.171Z,99.40
2019-01-27T08:28:46.555Z,99.50
2019-01-27T08:31:34.114Z,99.70
2019-01-27T08:34:25.764Z,99.80
2019-01-27T08:37:14.825Z,99.90
2019-01-27T08:39:56.049Z,98.90
2019-01-27T08:42:46.407Z,98.30
2019-01-27T08:45:33.959Z,97.80
2019-01-27T08:48:03.912Z,98.60
2019-01-27T08:50:33.981Z,98.30
2019-01-27T08:53:04.253Z,98.50
2019-01-27T08:55:34.248Z,98.90
2019-01-27T08:58:04.280Z,98.40
2019-01-27T09:00:38.632Z,98.60
2019-01-27T09:03:41.330Z,98.30
2019-01-27T09:06:45.637Z,97.90
2019-01-27T09:09:33.503Z,97.70
2019-01-27T09:12:24.072Z,97.90
2019-01-27T09:15:21.632Z,98.00
2019-01-27T09:18:16.560Z,97.30
2019-01-27T09:21:05.462Z,97.60
2019-01-27T09:23:55.382Z,98.10
2019-01-27T09:26:57.642Z,98.30
2019-01-27T09:29:45.484Z,98.50
2019-01-27T09:32:37.121Z,99.10
2019-01-27T09:35:40.611Z,99.40
2019-01-27T09:38:38.403Z,99.20
2019-01-27T09:41:27.290Z,98.70
2019-01-27T09:44:17.599Z,98.90
2019-01-27T09:47:21.740Z,98.70
2019-01-27T09:50:07.220Z,98.60
2019-01-27T09:53:08.672Z,98.70
2019-01-27T09:56:15.412Z,98.90
2019-01-27T09:59:07.448Z,99.50
2019-01-27T10:02:10.114Z,99.40
2019-01-27T10:05:03.145Z,99.50
2019-01-27T10:07:46.925Z,98.80
2019-01-27T10:10:36.088Z,99.40
2019-01-27T10:13:22.821Z,99.90
2019-01-27T10:16:01.108Z,99.90
2019-01-27T10:18:55.849Z,99.90
2019-01-27T10:21:45.341Z,99.30
2019-01-27T10:24:37.104Z,99.30
2019-01-27T10:27:23.594Z,99.90
2019-01-27T10:30:11.131Z,99.90
2019-01-27T10:33:18.454Z,99.90
2019-01-27T10:36:00.836Z,99.80
2019-01-27T10:38:41.804Z,99.90
2019-01-27T10:41:30.664Z,99.90
2019-01-27T10:44:09.688Z,98.90
2019-01-27T10:47:06.619Z,99.90
2019-01-27T10:49:48.844Z,99.90
2019-01-27T10:52:29.923Z,99.90
2019-01-27T10:55:09.146Z,99.90
2019-01-27T10:58:04.516Z,99.20
2019-01-27T11:01:08.572Z,99.90
2019-01-27T11:03:57.769Z,99.90
2019-01-27T11:06:45.721Z,99.90
2019-01-27T11:09:41.461Z,99.90
2019-01-27T11:12:33.504Z,99.90
2019-01-27T11:15:21.701Z,99.90
2019-01-27T11:18:13.601Z,99.90
2019-01-27T11:21:11.369Z,99.60
2019-01-27T11:23:59.232Z,99.90
2019-01-27T11:26:38.260Z,99.90
2019-01-27T11:29:32.852Z,99.90
2019-01-27T11:32:37.040Z,99.90
2019-01-27T11:35:20.502Z,99.90
2019-01-27T11:38:27.968Z,99.90
2019-01-27T11:41:09.351Z,99.90
2019-01-27T11:43:56.232Z,99.90
2019-01-27T11:46:42.665Z,99.90
2019-01-27T11:49:17.394Z,99.90
2019-01-27T11:52:15.783Z,99.90
2019-01-27T11:54:46.041Z,99.90
2019-01-27T11:57:16.334Z,99.90
2019-01-27T11:59:46.269Z,99.90
2019-01-27T12:02:17.438Z,99.90
2019-01-27T12:04:47.452Z,99.90
2019-01-27T12:07:17.593Z,99.90
2019-01-27T12:09:47.760Z,99.90
2019-01-27T12:12:18.455Z,99.90
2019-01-27T12:14:48.507Z,99.90
2019-01-27T12:17:19.006Z,99.90
2019-01-27T12:19:49.230Z,99.90
2019-01-27T12:22:19.864Z,99.90
2019-01-27T12:24:50.585Z,99.90
2019-01-27T12:27:21.141Z,99.90
2019-01-27T12:29:51.862Z,99.90
2019-01-27T12:32:22.461Z,99.90
2019-01-27T12:34:53.465Z,99.90
2019-01-27T12:37:24.060Z,99.90
2019-01-27T12:39:55.468Z,99.90
2019-01-27T12:42:28.639Z,99.90
2019-01-27T12:44:59.251Z,99.90
2019-01-27T12:47:30.508Z,99.90
2019-01-27T12:50:01.348Z,99.90
2019-01-27T12:52:32.292Z,99.90
2019-01-27T12:55:03.401Z,99.90
2019-01-27T12:57:34.097Z,99.80
2019-01-27T13:00:05.505Z,99.70
2019-01-27T13:02:37.340Z,98.30
2019-01-27T13:05:10.345Z,98.50
2019-01-27T13:07:41.358Z,98.60
2019-01-27T13:10:13.888Z,99.20
2019-01-27T13:12:44.244Z,99.50
2019-01-27T13:15:16.085Z,99.90
2019-01-27T13:17:46.744Z,99.90
2019-01-27T13:20:17.393Z,99.90
2019-01-27T13:22:47.801Z,99.90
2019-01-27T13:25:18.769Z,99.90
2019-01-27T13:27:49.189Z,99.90
2019-01-27T13:30:21.668Z,99.90
2019-01-27T13:32:52.648Z,99.90
2019-01-27T13:35:24.219Z,99.90
2019-01-27T13:37:55.485Z,99.90
2019-01-27T13:40:26.196Z,99.90
2019-01-27T13:42:57.275Z,99.90
2019-01-27T13:45:29.512Z,99.90
2019-01-27T13:48:00.538Z,99.90
2019-01-27T13:50:31.294Z,99.90
2019-01-27T13:53:02.152Z,99.90
2019-01-27T13:55:33.040Z,99.90
2019-01-27T13:58:03.248Z,99.90
2019-01-27T14:00:35.812Z,99.90
2019-01-27T14:03:06.681Z,99.90
2019-01-27T14:05:37.473Z,99.90
2019-01-27T14:08:08.700Z,99.90
2019-01-27T14:10:39.419Z,99.90
2019-01-27T14:13:10.228Z,99.90
2019-01-27T14:15:41.165Z,99.80
2019-01-27T14:18:12.176Z,99.90
2019-01-27T14:20:42.818Z,99.90
2019-01-27T14:23:13.667Z,99.90
2019-01-27T14:25:44.680Z,99.90
2019-01-27T14:28:16.104Z,99.90
2019-01-27T14:30:47.037Z,99.90
2019-01-27T14:33:17.741Z,99.90
2019-01-27T14:35:48.648Z,99.90
2019-01-27T14:38:18.902Z,99.90
2019-01-27T14:40:49.694Z,99.90
2019-01-27T14:43:20.456Z,99.90
2019-01-27T14:45:51.452Z,99.90
2019-01-27T14:48:21.786Z,99.00
2019-01-27T14:50:52.677Z,99.40
2019-01-27T14:53:23.545Z,99.90
2019-01-27T14:55:54.180Z,99.90
2019-01-27T14:58:25.065Z,99.90
2019-01-27T15:00:56.245Z,99.90
2019-01-27T15:03:26.976Z,99.90
2019-01-27T15:05:57.608Z,99.90
2019-01-27T15:08:27.968Z,99.90
2019-01-27T15:10:59.029Z,99.90
2019-01-27T15:13:29.593Z,99.90
2019-01-27T15:16:01.346Z,99.90
2019-01-27T15:18:33.547Z,99.90
2019-01-27T15:21:17.892Z,99.90
2019-01-27T15:23:48.708Z,99.90
2019-01-27T15:26:20.220Z,99.90
2019-01-27T15:28:51.260Z,99.90
2019-01-27T15:31:21.826Z,99.90
2019-01-27T15:33:53.238Z,99.90
2019-01-27T15:36:24.064Z,99.90
2019-01-27T15:38:55.215Z,99.90
2019-01-27T15:41:25.972Z,99.90
2019-01-27T15:43:57.061Z,99.90
2019-01-27T15:46:27.928Z,99.90
2019-01-27T15:48:59.259Z,99.90
2019-01-27T15:51:30.065Z,99.90
2019-01-27T15:54:01.115Z,99.90
2019-01-27T15:56:32.140Z,99.90
2019-01-27T15:59:03.304Z,99.90
2019-01-27T16:01:34.665Z,99.90
2019-01-27T16:04:05.736Z,99.90
2019-01-27T16:06:36.693Z,99.90
2019-01-27T16:09:09.732Z,99.90
2019-01-27T16:11:40.942Z,99.90
2019-01-27T16:14:11.568Z,99.90
2019-01-27T16:16:42.740Z,99.90
2019-01-27T16:19:13.791Z,99.80
2019-01-27T16:21:44.851Z,98.90
2019-01-27T16:24:41.363Z,95.90
2019-01-27T16:27:12.914Z,98.60
2019-01-27T16:30:01.389Z,99.20
2019-01-27T16:32:35.704Z,99.60
2019-01-27T16:35:11.154Z,99.90
2019-01-27T16:37:42.620Z,96.40
2019-01-27T16:40:16.093Z,99.90
2019-01-27T16:42:47.308Z,99.90
2019-01-27T16:45:18.681Z,99.90
2019-01-27T16:47:49.588Z,99.90
2019-01-27T16:50:20.565Z,99.90
2019-01-27T16:52:51.423Z,99.20
2019-01-27T16:55:22.164Z,97.00
2019-01-27T16:57:53.374Z,98.40
2019-01-27T17:00:27.299Z,99.10
2019-01-27T17:02:57.606Z,96.90
2019-01-27T17:05:28.762Z,97.40
2019-01-27T17:07:59.541Z,95.70
2019-01-27T17:10:30.603Z,97.90
2019-01-27T17:13:01.275Z,97.40
2019-01-27T17:15:32.146Z,96.90
2019-01-27T17:18:02.796Z,98.80
2019-01-27T17:20:33.488Z,99.90
2019-01-27T17:23:03.738Z,99.90
2019-01-27T17:25:34.424Z,99.90
2019-01-27T17:28:05.841Z,99.90
2019-01-27T17:30:36.601Z,99.90
2019-01-27T17:33:07.505Z,97.00
2019-01-27T17:35:38.661Z,99.40
2019-01-27T17:38:09.514Z,98.20
2019-01-27T17:40:40.507Z,98.70
2019-01-27T17:43:11.023Z,97.30
2019-01-27T17:45:42.560Z,98.70
2019-01-27T17:48:13.260Z,98.60
2019-01-27T17:50:44.515Z,99.50
2019-01-27T17:53:15.970Z,97.80
2019-01-27T17:55:47.001Z,98.00
2019-01-27T17:58:54.356Z,98.30
2019-01-27T18:01:44.106Z,98.80
2019-01-27T18:04:27.071Z,97.10
2019-01-27T18:07:05.957Z,98.20
2019-01-27T18:09:54.919Z,98.00
2019-01-27T18:12:38.226Z,99.90
2019-01-27T18:15:10.223Z,97.60
2019-01-27T18:17:40.989Z,98.20
2019-01-27T18:20:14.202Z,98.20
2019-01-27T18:22:45.651Z,96.80
2019-01-27T18:25:17.117Z,99.90
2019-01-27T18:27:48.189Z,99.90
2019-01-27T18:30:21.885Z,96.90
2019-01-27T18:32:53.300Z,98.70
2019-01-27T18:35:26.051Z,99.90
2019-01-27T18:37:57.828Z,99.90
2019-01-27T18:40:29.670Z,99.90
2019-01-27T18:43:01.198Z,99.50
2019-01-27T18:45:32.944Z,98.50
2019-01-27T18:48:04.627Z,99.90
2019-01-27T18:50:35.691Z,96.90
2019-01-27T18:53:27.865Z,97.90
2019-01-27T18:56:20.103Z,99.90
2019-01-27T18:59:00.632Z,98.90
2019-01-27T19:01:48.360Z,99.90
2019-01-27T19:04:43.876Z,99.90
2019-01-27T19:07:36.351Z,99.90
2019-01-27T19:10:31.979Z,97.70
2019-01-27T19:13:23.789Z,99.40
2019-01-27T19:16:06.234Z,97.60
2019-01-27T19:18:54.763Z,96.50
2019-01-27T19:21:49.728Z,97.80
2019-01-27T19:24:45.012Z,95.80
2019-01-27T19:27:32.705Z,95.90
2019-01-27T19:30:11.282Z,95.80
2019-01-27T19:32:58.914Z,98.20
2019-01-27T19:35:40.388Z,99.90
2019-01-27T19:38:35.427Z,97.60
2019-01-27T19:41:27.872Z,95.30
2019-01-27T19:44:17.108Z,93.90
2019-01-27T19:47:15.701Z,95.50
2019-01-27T19:50:04.349Z,94.40
2019-01-27T19:52:56.513Z,95.40
2019-01-27T19:55:45.858Z,97.70
2019-01-27T19:58:30.884Z,99.90
2019-01-27T20:01:32.307Z,99.90
2019-01-27T20:04:19.484Z,99.20
2019-01-27T20:07:15.857Z,99.90
2019-01-27T20:10:20.687Z,98.00
2019-01-27T20:13:08.475Z,99.30
2019-01-27T20:16:07.500Z,99.20
2019-01-27T20:18:55.120Z,96.70
2019-01-27T20:21:44.420Z,99.60
2019-01-27T20:30:23.556Z,98.50
2019-01-27T20:33:15.360Z,99.90
2019-01-27T20:36:07.527Z,99.90
2019-01-27T20:39:08.620Z,99.70
2019-01-27T20:41:49.633Z,99.50
2019-01-27T20:44:38.761Z,99.20
2019-01-27T20:47:20.380Z,99.90
2019-01-27T20:50:05.873Z,99.90
2019-01-27T20:52:53.702Z,99.90
2019-01-27T20:55:36.119Z,99.90
2019-01-27T20:58:24.051Z,99.90
2019-01-27T21:01:03.284Z,99.50
2019-01-27T21:03:42.309Z,99.90
2019-01-27T21:06:32.839Z,99.90
2019-01-27T21:09:16.710Z,99.90
2019-01-27T21:12:06.428Z,99.90
2019-01-27T21:14:54.229Z,99.90
2019-01-27T21:17:49.264Z,96.90
2019-01-27T21:20:22.485Z,97.70
2019-01-27T21:22:53.903Z,99.90
2019-01-27T21:25:25.004Z,99.80
2019-01-27T21:27:56.299Z,99.90
2019-01-27T21:30:27.680Z,99.90
2019-01-27T21:32:59.093Z,99.90
2019-01-27T21:35:30.316Z,99.90
2019-01-27T21:38:01.256Z,99.90
2019-01-27T21:40:32.040Z,99.90
2019-01-27T21:43:02.726Z,99.90
2019-01-27T21:45:33.410Z,99.30
2019-01-27T21:48:04.104Z,99.90
2019-01-27T21:50:34.556Z,99.90
2019-01-27T21:53:04.834Z,99.90
2019-01-27T21:55:35.094Z,99.90
2019-01-27T21:58:05.533Z,98.10
2019-01-27T22:00:35.932Z,99.90
2019-01-27T22:03:06.084Z,99.80
2019-01-27T22:05:36.394Z,99.90
2019-01-27T22:08:06.905Z,99.50
2019-01-27T22:10:37.061Z,99.50
2019-01-27T22:13:07.200Z,99.90
2019-01-27T22:15:37.145Z,98.80
2019-01-27T22:18:07.281Z,98.00
2019-01-27T22:20:37.448Z,99.70
2019-01-27T22:23:08.215Z,98.00
2019-01-27T22:25:38.183Z,98.80
2019-01-27T22:28:08.318Z,99.90
2019-01-27T22:30:38.541Z,99.30
2019-01-27T22:33:08.409Z,99.90
2019-01-27T22:35:38.332Z,99.90
2019-01-27T22:38:08.124Z,99.90
2019-01-27T22:40:37.960Z,99.90
2019-01-27T22:43:08.056Z,99.90
2019-01-27T22:45:38.244Z,99.90
2019-01-27T22:48:08.190Z,99.90
2019-01-27T22:50:38.254Z,99.90
2019-01-27T22:53:08.017Z,99.90
2019-01-27T22:55:38.068Z,99.90
2019-01-27T22:58:08.136Z,99.90
2019-01-27T23:00:58.992Z,98.80
2019-01-27T23:03:30.457Z,99.40
2019-01-27T23:06:00.668Z,99.90
2019-01-27T23:08:30.872Z,99.90
2019-01-27T23:11:00.942Z,99.90
2019-01-27T23:13:30.927Z,99.90
2019-01-27T23:16:02.578Z,99.90
2019-01-27T23:18:32.665Z,99.00
2019-01-27T23:21:03.403Z,99.90
2019-01-27T23:23:33.653Z,99.90
2019-01-27T23:26:03.760Z,99.90
2019-01-27T23:28:33.761Z,99.90
2019-01-27T23:31:03.800Z,99.90
2019-01-27T23:33:33.997Z,99.90
2019-01-27T23:36:04.157Z,99.90
2019-01-27T23:38:35.743Z,99.90
2019-01-27T23:41:08.245Z,99.90
2019-01-27T23:43:39.180Z,99.90
2019-01-27T23:46:09.124Z,99.90
2019-01-27T23:48:39.916Z,99.90
2019-01-27T23:51:10.259Z,99.90
2019-01-27T23:53:42.320Z,99.90
2019-01-27T23:56:14.180Z,99.70
2019-01-27T23:58:44.273Z,99.90
